Pagina principale
METAR-TAF:

METAR-TAF

Aeroporti :

Aeroporto di Annaba-Rabah Bitat

Annaba, Algeria

latitudine: 36-50N, longitudine: 007-49E, altezza: 4 m

Osservazione

Il bollettino è stato emesso 10 minuti fa, alle 02:30 UTC
Vento 5 kt da nord/nord-est
Temperature 7°C
Umidità 87%
Pressione 1022 hPa
Visibilità 10 km o più
nessuna nube inferiore a 1500 m e nessun cumulonembo

METAR: DABB 250230Z 02005KT CAVOK 07/05 Q1022

Ora: 03:40 (02:40 UTC)

Previsione

Il bollettino è stato emesso 3 ore e 40 minuti fa, alle 23:00 UTC
Previsione valida dal 25 alle 00 UTC al 25 alle 24 UTC
Vento 8 kt da ovest/nord-ovest
Visibilità 10 km o più
nessuna nube inferiore a 1500 m e nessun cumulonembo
Probabilità 30% :
Temporaneamente
dal 25 alle 02 UTC al 25 alle 08 UTC
Visibilità: 2000 m
Nubi sparse ad un'altezza di 1000 ft
foschia

TAF: DABB 242300Z 2500/2524 29008KT CAVOK PROB30 TEMPO 2502/2508 2000 BR SCT010

Osservazioni e previsioni meteorologiche di più di 4000 aeroporti (messaggi METAR e TAF).

Le stazioni disponibili sono rappresentate dai dischi gialli e rossi sulla carta.

Puntare il mouse per vedere il nome della stazione.

Clicca sopra per visualizzare le osservazioni e previsioni meteorologiche.

Per cambiare la mappa : fare clic sui pulsanti verdi con una croce nera per ingrandire, il pulsante verde con un trattino per diminuire, o sulla freccia verde per le mappe adiacenti.


METAR-TAF: